Nearby METAR Reports

 

KMLE - Omaha/Millard, Nebraska, USA
Distance from station: NE 1mi, 2km
Updated: Thu, 29-Sep-2022 6:55pm CDT
Clear
Clear
 Wind from SE
Wind: SE 10 mph , 17 km/h, Gust: 16 mph , 26 km/h
Temperature: 68°F , 20°C
Dew Point: 43°F , 6°C
Humidity: 40%
Barometer: 30.15 inHg , 1021 hPa
Clouds: Clear
Visibility: 10 miles , 16 km
2022/09/29 23:55 KMLE 292355Z AUTO 14009G14KT 10SM CLR 20/06 A3015 RMK AO2 T02010055 10233 20201
KOFF - Offutt Afb/Belle, Nebraska, USA
Distance from station: ESE 12mi, 20km
Updated: Thu, 29-Sep-2022 6:55pm CDT
Clear
Clear
 Wind from SE
Wind: SE 12 mph , 19 km/h
Temperature: 70°F , 21°C
Dew Point: 37°F , 3°C
Humidity: 31%
Barometer: 30.17 inHg , 1021.7 hPa
Clouds: Clear
Visibility: 10 miles , 16 km
2022/09/29 23:55 KOFF 292355Z 13010KT 10SM CLR 21/03 A3017 RMK AO2A SLP221 T02060029 10240 20206 57013 PWINO PNO FZRANO TSNO VISNO RWY13 CHINO RWY13 $
 
KOMA - Omaha/Eppley, Nebraska, USA
Distance from station: NE 15mi, 24km
Updated: Thu, 29-Sep-2022 6:52pm CDT
Few Clouds
Few Clouds
 Wind from SE
Wind: SE 14 mph , 22 km/h
Temperature: 68°F , 20°C
Dew Point: 39°F , 4°C
Humidity: 35%
Barometer: 30.15 inHg , 1021 hPa
Clouds: Few Clouds
Visibility: 10 miles , 16 km
Cloud details: Few Clouds 18000 ft
2022/09/29 23:52 KOMA 292352Z 14012KT 10SM FEW180 20/04 A3015 RMK AO2 SLP210 T02000044 10233 20200 56014
KBTA - Blair Muni, Nebraska, USA
Distance from station: N 16mi, 25km
Updated: Thu, 29-Sep-2022 6:55pm CDT
Clear
Clear
 Wind from SE
Wind: SE 8 mph , 13 km/h
Temperature: 68°F , 20°C
Dew Point: 43°F , 6°C
Humidity: 40%
Barometer: 30.14 inHg , 1020.7 hPa
Clouds: Clear
Visibility: 10 miles , 16 km
2022/09/29 23:55 KBTA 292355Z AUTO 14007KT 10SM CLR 20/06 A3014 RMK AO2 T01990055 10234 20199
 
KCBF - Council Bluffs, Iowa, USA
Distance from station: ENE 20mi, 32km
Updated: Thu, 29-Sep-2022 6:55pm CDT
Clear
Clear
 Wind from SE
Wind: SE 12 mph , 19 km/h
Temperature: 66°F , 19°C
Dew Point: 34°F , 1°C
Humidity: 30%
Barometer: 30.15 inHg , 1021 hPa
Clouds: Clear
Visibility: 9 miles , 14 km
2022/09/29 23:55 KCBF 292355Z AUTO 14010KT 9SM CLR 19/01 A3015 RMK AO2
KPMV - Plattsmouth Muni, Nebraska, USA
Distance from station: SE 20mi, 32km
Updated: Thu, 29-Sep-2022 6:55pm CDT
Clear
Clear
 Wind from SE
Wind: SE 8 mph , 13 km/h
Temperature: 66°F , 19°C
Dew Point: 41°F , 5°C
Humidity: 40%
Barometer: 30.16 inHg , 1021.3 hPa
Clouds: Clear
Visibility: 10 miles , 16 km
2022/09/29 23:55 KPMV 292355Z AUTO 14007KT 10SM CLR 19/05 A3016 RMK AO2 T01920053 10235 20192
 
KAHQ - Wahoo, Nebraska, USA
Distance from station: W 25mi, 40km
Updated: Thu, 29-Sep-2022 6:55pm CDT
Clear
Clear
 Wind from SE
Wind: SE 13 mph , 20 km/h, Gust: 20 mph , 31 km/h
Temperature: 70°F , 21°C
Dew Point: 41°F , 5°C
Humidity: 35%
Barometer: 30.13 inHg , 1020.3 hPa
Clouds: Clear
Visibility: 10 miles , 16 km
2022/09/29 23:55 KAHQ 292355Z AUTO 14011G17KT 10SM CLR 21/05 A3013 RMK AO2 T02110052 10248 20211
KFET - Fremont Muni Arp, Nebraska, USA
Distance from station: NW 27mi, 43km
Updated: Thu, 29-Sep-2022 6:55pm CDT
Clear
Clear
 Wind from SE
Wind: SE 13 mph , 20 km/h, Gust: 17 mph , 28 km/h
Temperature: 70°F , 21°C
Dew Point: 45°F , 7°C
Humidity: 40%
Barometer: 30.13 inHg , 1020.3 hPa
Clouds: Clear
Visibility: 10 miles , 16 km
2022/09/29 23:55 KFET 292355Z AUTO 13011G15KT 10SM CLR 21/07 A3013 RMK AO2 T02090069 10240 20206
 
KTQE - Tekamah, Nebraska, USA
Distance from station: N 40mi, 64km
Updated: Thu, 29-Sep-2022 6:54pm CDT
Clear
Clear
 Wind from SE
Wind: SE 14 mph , 22 km/h, Gust: 21 mph , 33 km/h
Temperature: 70°F , 21°C
Dew Point: 41°F , 5°C
Humidity: 35%
Barometer: 30.13 inHg , 1020.3 hPa
Clouds: Clear
Visibility: 10 miles , 16 km
2022/09/29 23:54 KTQE 292354Z AUTO 14012G18KT 10SM CLR 21/05 A3013 RMK AO2 SLP199 T02110050 10250 20211 56015
KLNK - Lincoln, Nebraska, USA
Distance from station: SW 41mi, 65km
Updated: Thu, 29-Sep-2022 6:54pm CDT
Clear
Clear
 Wind from SE
Wind: SE 13 mph , 20 km/h
Temperature: 73°F , 23°C
Dew Point: 45°F , 7°C
Humidity: 36%
Barometer: 30.13 inHg , 1020.3 hPa
Clouds: Clear
Visibility: 10 miles , 16 km
2022/09/29 23:54 KLNK 292354Z AUTO 14011KT 10SM CLR 23/07 A3013 RMK AO2 RAB19E30 SLP201 P0000 60000 T02280072 10261 20228 58014
 
KAFK - Nebraska City, Nebraska, USA
Distance from station: SSE 43mi, 70km
Updated: Thu, 29-Sep-2022 6:55pm CDT
Clear
Clear
 Wind from SE
Wind: SE 10 mph , 17 km/h
Temperature: 68°F , 20°C
Dew Point: 41°F , 5°C
Humidity: 38%
Barometer: 30.18 inHg , 1022 hPa
Clouds: Clear
Visibility: 10 miles , 16 km
2022/09/29 23:55 KAFK 292355Z AUTO 14009KT 10SM CLR 20/05 A3018 RMK AO2 T01960046 10227 20196
KRDK - Red Oak, Iowa, USA
Distance from station: ESE 47mi, 75km
Updated: Thu, 29-Sep-2022 6:55pm CDT
Clear
Clear
 Wind from SE
Wind: SE 9 mph , 15 km/h, Gust: 17 mph , 28 km/h
Temperature: 66°F , 19°C
Dew Point: 39°F , 4°C
Humidity: 37%
Barometer: 30.19 inHg , 1022.4 hPa
Clouds: Clear
Visibility: 10 miles , 16 km
2022/09/29 23:55 KRDK 292355Z AUTO 13008G15KT 10SM CLR 19/04 A3019 RMK AO2
 
KSDA - Shenandoah Muni, Iowa, USA
Distance from station: SE 48mi, 77km
Updated: Thu, 29-Sep-2022 6:55pm CDT
Clear
Clear
 Wind from SE
Wind: SE 8 mph , 13 km/h
Temperature: 66°F , 19°C
Dew Point: 39°F , 4°C
Humidity: 37%
Barometer: 30.18 inHg , 1022 hPa
Clouds: Clear
Visibility: 10 miles , 16 km
2022/09/29 23:55 KSDA 292355Z AUTO 13007KT 10SM CLR 19/04 A3018 RMK AO2
KHNR - Harlan Muni, Iowa, USA
Distance from station: NE 49mi, 80km
Updated: Thu, 29-Sep-2022 6:55pm CDT
Clear
Clear
 Wind from SSE
Wind: SSE 10 mph , 17 km/h
Temperature: 64°F , 18°C
Dew Point: 41°F , 5°C
Humidity: 43%
Barometer: 30.18 inHg , 1022 hPa
Clouds: Clear
Visibility: 10 miles , 16 km
2022/09/29 23:55 KHNR 292355Z AUTO 15009KT 10SM CLR 18/05 A3018 RMK A01